sensor_id;sensor_type;location;lat;lon;timestamp;P1;durP1;ratioP1;P2;durP2;ratioP2
39190;SDS011;24916;51.676;6.614;2023-08-12T00:01:17;13.30;;;9.43;;
39190;SDS011;24916;51.676;6.614;2023-08-12T00:03:45;12.00;;;8.95;;
39190;SDS011;24916;51.676;6.614;2023-08-12T00:06:10;17.38;;;9.50;;
39190;SDS011;24916;51.676;6.614;2023-08-12T00:08:35;18.70;;;9.45;;
39190;SDS011;24916;51.676;6.614;2023-08-12T00:11:01;14.57;;;7.35;;
39190;SDS011;24916;51.676;6.614;2023-08-12T00:13:26;15.40;;;8.85;;
39190;SDS011;24916;51.676;6.614;2023-08-12T00:15:51;10.75;;;6.43;;
39190;SDS011;24916;51.676;6.614;2023-08-12T00:18:16;15.93;;;9.68;;
39190;SDS011;24916;51.676;6.614;2023-08-12T00:20:42;10.73;;;7.38;;
39190;SDS011;24916;51.676;6.614;2023-08-12T00:23:08;13.35;;;9.30;;
39190;SDS011;24916;51.676;6.614;2023-08-12T00:25:33;13.32;;;9.02;;
39190;SDS011;24916;51.676;6.614;2023-08-12T00:27:58;14.48;;;8.80;;
39190;SDS011;24916;51.676;6.614;2023-08-12T00:30:23;15.55;;;9.55;;
39190;SDS011;24916;51.676;6.614;2023-08-12T00:32:49;15.93;;;9.17;;
39190;SDS011;24916;51.676;6.614;2023-08-12T00:35:14;18.27;;;9.85;;
39190;SDS011;24916;51.676;6.614;2023-08-12T00:37:39;15.23;;;10.20;;
39190;SDS011;24916;51.676;6.614;2023-08-12T00:40:05;12.63;;;9.23;;
39190;SDS011;24916;51.676;6.614;2023-08-12T00:42:31;16.05;;;10.00;;
39190;SDS011;24916;51.676;6.614;2023-08-12T00:44:57;12.40;;;7.13;;
39190;SDS011;24916;51.676;6.614;2023-08-12T00:47:22;11.93;;;9.30;;
39190;SDS011;24916;51.676;6.614;2023-08-12T00:49:47;11.43;;;8.68;;
39190;SDS011;24916;51.676;6.614;2023-08-12T00:52:13;13.50;;;10.07;;
39190;SDS011;24916;51.676;6.614;2023-08-12T00:54:39;14.52;;;9.52;;
39190;SDS011;24916;51.676;6.614;2023-08-12T00:57:05;10.10;;;8.35;;
39190;SDS011;24916;51.676;6.614;2023-08-12T00:59:30;16.52;;;10.35;;
39190;SDS011;24916;51.676;6.614;2023-08-12T01:01:57;13.77;;;9.63;;
39190;SDS011;24916;51.676;6.614;2023-08-12T01:04:22;13.50;;;10.50;;
39190;SDS011;24916;51.676;6.614;2023-08-12T01:06:47;12.70;;;8.00;;
39190;SDS011;24916;51.676;6.614;2023-08-12T01:09:12;15.20;;;10.73;;
39190;SDS011;24916;51.676;6.614;2023-08-12T01:14:09;13.35;;;9.35;;
39190;SDS011;24916;51.676;6.614;2023-08-12T01:16:39;14.95;;;11.02;;
39190;SDS011;24916;51.676;6.614;2023-08-12T01:19:05;13.73;;;8.55;;
39190;SDS011;24916;51.676;6.614;2023-08-12T01:21:31;17.90;;;10.38;;
39190;SDS011;24916;51.676;6.614;2023-08-12T01:23:58;18.25;;;11.35;;
39190;SDS011;24916;51.676;6.614;2023-08-12T01:26:23;14.88;;;11.43;;
39190;SDS011;24916;51.676;6.614;2023-08-12T01:28:49;13.98;;;9.15;;
39190;SDS011;24916;51.676;6.614;2023-08-12T01:31:26;14.18;;;8.20;;
39190;SDS011;24916;51.676;6.614;2023-08-12T01:33:59;13.38;;;8.20;;
39190;SDS011;24916;51.676;6.614;2023-08-12T01:36:27;19.50;;;11.73;;
39190;SDS011;24916;51.676;6.614;2023-08-12T01:38:53;13.48;;;8.60;;
39190;SDS011;24916;51.676;6.614;2023-08-12T01:41:20;18.00;;;11.65;;
39190;SDS011;24916;51.676;6.614;2023-08-12T01:43:48;15.15;;;11.98;;
39190;SDS011;24916;51.676;6.614;2023-08-12T01:46:13;16.42;;;11.25;;
39190;SDS011;24916;51.676;6.614;2023-08-12T01:48:38;12.37;;;11.03;;
39190;SDS011;24916;51.676;6.614;2023-08-12T01:51:03;15.70;;;12.53;;
39190;SDS011;24916;51.676;6.614;2023-08-12T01:53:29;14.80;;;10.75;;
39190;SDS011;24916;51.676;6.614;2023-08-12T01:55:54;21.77;;;13.13;;
39190;SDS011;24916;51.676;6.614;2023-08-12T01:58:20;13.27;;;9.03;;
39190;SDS011;24916;51.676;6.614;2023-08-12T02:00:45;15.07;;;11.00;;
39190;SDS011;24916;51.676;6.614;2023-08-12T02:03:10;17.00;;;11.13;;
39190;SDS011;24916;51.676;6.614;2023-08-12T02:05:35;18.10;;;14.20;;
39190;SDS011;24916;51.676;6.614;2023-08-12T02:08:02;19.63;;;14.77;;
39190;SDS011;24916;51.676;6.614;2023-08-12T02:10:27;17.02;;;11.88;;
39190;SDS011;24916;51.676;6.614;2023-08-12T02:12:53;19.13;;;13.82;;
39190;SDS011;24916;51.676;6.614;2023-08-12T02:15:18;17.13;;;12.15;;
39190;SDS011;24916;51.676;6.614;2023-08-12T02:17:43;20.67;;;15.13;;
39190;SDS011;24916;51.676;6.614;2023-08-12T02:20:09;24.37;;;15.33;;
39190;SDS011;24916;51.676;6.614;2023-08-12T02:22:34;16.23;;;10.77;;
39190;SDS011;24916;51.676;6.614;2023-08-12T02:24:59;17.87;;;10.73;;
39190;SDS011;24916;51.676;6.614;2023-08-12T02:27:25;19.17;;;11.32;;
39190;SDS011;24916;51.676;6.614;2023-08-12T02:29:50;20.98;;;16.45;;
39190;SDS011;24916;51.676;6.614;2023-08-12T02:32:15;20.73;;;14.02;;
39190;SDS011;24916;51.676;6.614;2023-08-12T02:34:40;17.60;;;14.87;;
39190;SDS011;24916;51.676;6.614;2023-08-12T02:37:05;23.08;;;17.67;;
39190;SDS011;24916;51.676;6.614;2023-08-12T02:39:31;21.40;;;14.97;;
39190;SDS011;24916;51.676;6.614;2023-08-12T02:41:56;21.37;;;15.67;;
39190;SDS011;24916;51.676;6.614;2023-08-12T02:44:21;15.60;;;13.63;;
39190;SDS011;24916;51.676;6.614;2023-08-12T02:46:46;23.25;;;19.35;;
39190;SDS011;24916;51.676;6.614;2023-08-12T02:49:11;27.20;;;19.90;;
39190;SDS011;24916;51.676;6.614;2023-08-12T02:51:37;21.08;;;15.98;;
39190;SDS011;24916;51.676;6.614;2023-08-12T02:54:02;19.33;;;14.77;;
39190;SDS011;24916;51.676;6.614;2023-08-12T02:56:27;25.73;;;18.77;;
39190;SDS011;24916;51.676;6.614;2023-08-12T02:58:53;22.55;;;19.10;;
39190;SDS011;24916;51.676;6.614;2023-08-12T03:01:18;21.07;;;16.10;;
39190;SDS011;24916;51.676;6.614;2023-08-12T03:03:44;22.88;;;20.10;;
39190;SDS011;24916;51.676;6.614;2023-08-12T03:06:09;23.85;;;18.15;;
39190;SDS011;24916;51.676;6.614;2023-08-12T03:08:34;27.70;;;21.17;;
39190;SDS011;24916;51.676;6.614;2023-08-12T03:11:00;25.65;;;19.70;;
39190;SDS011;24916;51.676;6.614;2023-08-12T03:13:26;20.23;;;15.63;;
39190;SDS011;24916;51.676;6.614;2023-08-12T03:15:51;26.60;;;22.75;;
39190;SDS011;24916;51.676;6.614;2023-08-12T03:18:16;22.65;;;16.35;;
39190;SDS011;24916;51.676;6.614;2023-08-12T03:20:42;28.63;;;22.90;;
39190;SDS011;24916;51.676;6.614;2023-08-12T03:23:07;26.95;;;17.88;;
39190;SDS011;24916;51.676;6.614;2023-08-12T03:25:32;33.53;;;23.23;;
39190;SDS011;24916;51.676;6.614;2023-08-12T03:27:57;34.42;;;24.13;;
39190;SDS011;24916;51.676;6.614;2023-08-12T03:30:23;24.33;;;16.27;;
39190;SDS011;24916;51.676;6.614;2023-08-12T03:32:48;34.05;;;25.55;;
39190;SDS011;24916;51.676;6.614;2023-08-12T03:35:13;36.30;;;22.02;;
39190;SDS011;24916;51.676;6.614;2023-08-12T03:37:38;31.77;;;24.33;;
39190;SDS011;24916;51.676;6.614;2023-08-12T03:40:04;34.13;;;24.65;;
39190;SDS011;24916;51.676;6.614;2023-08-12T03:42:29;30.27;;;21.83;;
39190;SDS011;24916;51.676;6.614;2023-08-12T03:44:54;29.48;;;17.50;;
39190;SDS011;24916;51.676;6.614;2023-08-12T03:47:20;35.00;;;23.98;;
39190;SDS011;24916;51.676;6.614;2023-08-12T03:49:48;21.38;;;16.92;;
39190;SDS011;24916;51.676;6.614;2023-08-12T03:52:13;25.92;;;19.83;;
39190;SDS011;24916;51.676;6.614;2023-08-12T03:54:38;35.23;;;24.63;;
39190;SDS011;24916;51.676;6.614;2023-08-12T03:57:04;32.75;;;23.42;;
39190;SDS011;24916;51.676;6.614;2023-08-12T03:59:29;27.63;;;21.50;;
39190;SDS011;24916;51.676;6.614;2023-08-12T04:01:54;31.13;;;20.77;;
39190;SDS011;24916;51.676;6.614;2023-08-12T04:04:20;36.77;;;26.27;;
39190;SDS011;24916;51.676;6.614;2023-08-12T04:06:45;29.50;;;21.77;;
39190;SDS011;24916;51.676;6.614;2023-08-12T04:09:13;41.08;;;32.53;;
39190;SDS011;24916;51.676;6.614;2023-08-12T04:11:38;30.35;;;21.85;;
39190;SDS011;24916;51.676;6.614;2023-08-12T04:14:03;49.33;;;31.33;;
39190;SDS011;24916;51.676;6.614;2023-08-12T04:16:28;39.53;;;25.52;;
39190;SDS011;24916;51.676;6.614;2023-08-12T04:18:54;41.67;;;28.60;;
39190;SDS011;24916;51.676;6.614;2023-08-12T04:21:19;48.38;;;31.63;;
39190;SDS011;24916;51.676;6.614;2023-08-12T04:23:44;47.20;;;30.80;;
39190;SDS011;24916;51.676;6.614;2023-08-12T04:26:09;34.80;;;22.93;;
39190;SDS011;24916;51.676;6.614;2023-08-12T04:28:34;30.13;;;18.77;;
39190;SDS011;24916;51.676;6.614;2023-08-12T04:31:00;43.78;;;31.23;;
39190;SDS011;24916;51.676;6.614;2023-08-12T04:33:25;49.73;;;32.67;;
39190;SDS011;24916;51.676;6.614;2023-08-12T04:35:50;41.03;;;23.98;;
39190;SDS011;24916;51.676;6.614;2023-08-12T04:38:17;51.15;;;30.73;;
39190;SDS011;24916;51.676;6.614;2023-08-12T04:40:43;37.70;;;25.58;;
39190;SDS011;24916;51.676;6.614;2023-08-12T04:43:08;41.75;;;27.88;;
39190;SDS011;24916;51.676;6.614;2023-08-12T04:45:34;41.95;;;25.83;;
39190;SDS011;24916;51.676;6.614;2023-08-12T04:47:59;42.92;;;29.90;;
39190;SDS011;24916;51.676;6.614;2023-08-12T04:50:24;47.10;;;30.35;;
39190;SDS011;24916;51.676;6.614;2023-08-12T04:52:50;37.75;;;22.70;;
39190;SDS011;24916;51.676;6.614;2023-08-12T04:55:15;45.45;;;30.05;;
39190;SDS011;24916;51.676;6.614;2023-08-12T04:57:40;41.15;;;26.70;;
39190;SDS011;24916;51.676;6.614;2023-08-12T05:00:06;47.57;;;31.60;;
39190;SDS011;24916;51.676;6.614;2023-08-12T05:02:34;41.22;;;29.83;;
39190;SDS011;24916;51.676;6.614;2023-08-12T05:05:00;50.88;;;30.45;;
39190;SDS011;24916;51.676;6.614;2023-08-12T05:07:26;37.15;;;24.00;;
39190;SDS011;24916;51.676;6.614;2023-08-12T05:09:51;35.78;;;24.13;;
39190;SDS011;24916;51.676;6.614;2023-08-12T05:12:16;52.92;;;32.33;;
39190;SDS011;24916;51.676;6.614;2023-08-12T05:14:41;51.25;;;31.02;;
39190;SDS011;24916;51.676;6.614;2023-08-12T05:17:06;47.92;;;31.90;;
39190;SDS011;24916;51.676;6.614;2023-08-12T05:19:32;46.10;;;29.73;;
39190;SDS011;24916;51.676;6.614;2023-08-12T05:21:57;43.10;;;28.85;;
39190;SDS011;24916;51.676;6.614;2023-08-12T05:24:23;30.52;;;18.77;;
39190;SDS011;24916;51.676;6.614;2023-08-12T05:26:48;41.30;;;26.50;;
39190;SDS011;24916;51.676;6.614;2023-08-12T05:29:13;38.92;;;25.92;;
39190;SDS011;24916;51.676;6.614;2023-08-12T05:31:38;45.95;;;26.83;;
39190;SDS011;24916;51.676;6.614;2023-08-12T05:34:04;33.63;;;22.73;;
39190;SDS011;24916;51.676;6.614;2023-08-12T05:36:29;44.78;;;27.90;;
39190;SDS011;24916;51.676;6.614;2023-08-12T05:38:54;42.17;;;26.85;;
39190;SDS011;24916;51.676;6.614;2023-08-12T05:41:20;37.40;;;21.98;;
39190;SDS011;24916;51.676;6.614;2023-08-12T05:43:47;31.27;;;16.95;;
39190;SDS011;24916;51.676;6.614;2023-08-12T05:46:12;39.63;;;25.25;;
39190;SDS011;24916;51.676;6.614;2023-08-12T05:48:37;33.60;;;21.17;;
39190;SDS011;24916;51.676;6.614;2023-08-12T05:51:03;38.40;;;24.67;;
39190;SDS011;24916;51.676;6.614;2023-08-12T05:53:28;38.58;;;24.75;;
39190;SDS011;24916;51.676;6.614;2023-08-12T05:55:53;31.83;;;16.85;;
39190;SDS011;24916;51.676;6.614;2023-08-12T05:58:18;41.35;;;23.02;;
39190;SDS011;24916;51.676;6.614;2023-08-12T06:00:45;35.42;;;19.83;;
39190;SDS011;24916;51.676;6.614;2023-08-12T06:03:11;42.45;;;23.98;;
39190;SDS011;24916;51.676;6.614;2023-08-12T06:05:36;37.67;;;22.75;;
39190;SDS011;24916;51.676;6.614;2023-08-12T06:08:01;40.38;;;23.23;;
39190;SDS011;24916;51.676;6.614;2023-08-12T06:10:27;23.45;;;14.00;;
39190;SDS011;24916;51.676;6.614;2023-08-12T06:12:52;39.77;;;23.77;;
39190;SDS011;24916;51.676;6.614;2023-08-12T06:15:17;38.40;;;22.93;;
39190;SDS011;24916;51.676;6.614;2023-08-12T06:17:42;29.42;;;14.80;;
39190;SDS011;24916;51.676;6.614;2023-08-12T06:20:08;41.23;;;23.67;;
39190;SDS011;24916;51.676;6.614;2023-08-12T06:22:33;42.15;;;25.40;;
39190;SDS011;24916;51.676;6.614;2023-08-12T06:24:58;40.00;;;24.63;;
39190;SDS011;24916;51.676;6.614;2023-08-12T06:27:24;29.05;;;16.33;;
39190;SDS011;24916;51.676;6.614;2023-08-12T06:29:49;41.47;;;23.77;;
39190;SDS011;24916;51.676;6.614;2023-08-12T06:32:14;39.58;;;25.08;;
39190;SDS011;24916;51.676;6.614;2023-08-12T06:34:40;31.20;;;19.05;;
39190;SDS011;24916;51.676;6.614;2023-08-12T06:37:05;30.75;;;17.65;;
39190;SDS011;24916;51.676;6.614;2023-08-12T06:39:30;42.80;;;23.60;;
39190;SDS011;24916;51.676;6.614;2023-08-12T06:41:56;26.97;;;18.33;;
39190;SDS011;24916;51.676;6.614;2023-08-12T06:44:21;33.38;;;21.42;;
39190;SDS011;24916;51.676;6.614;2023-08-12T06:46:46;28.77;;;19.38;;
39190;SDS011;24916;51.676;6.614;2023-08-12T06:49:12;35.80;;;19.33;;
39190;SDS011;24916;51.676;6.614;2023-08-12T06:51:37;35.65;;;22.17;;
39190;SDS011;24916;51.676;6.614;2023-08-12T06:54:02;30.35;;;18.88;;
39190;SDS011;24916;51.676;6.614;2023-08-12T06:56:27;33.00;;;21.20;;
39190;SDS011;24916;51.676;6.614;2023-08-12T06:58:53;31.13;;;20.85;;
39190;SDS011;24916;51.676;6.614;2023-08-12T07:01:18;25.73;;;17.43;;
39190;SDS011;24916;51.676;6.614;2023-08-12T07:03:43;27.15;;;20.30;;
39190;SDS011;24916;51.676;6.614;2023-08-12T07:06:09;22.63;;;15.95;;
39190;SDS011;24916;51.676;6.614;2023-08-12T07:08:34;35.92;;;28.15;;
39190;SDS011;24916;51.676;6.614;2023-08-12T07:10:59;30.98;;;24.27;;
39190;SDS011;24916;51.676;6.614;2023-08-12T07:13:24;30.48;;;21.42;;
39190;SDS011;24916;51.676;6.614;2023-08-12T07:15:49;31.67;;;21.13;;
39190;SDS011;24916;51.676;6.614;2023-08-12T07:18:15;31.58;;;22.25;;
39190;SDS011;24916;51.676;6.614;2023-08-12T07:20:40;25.88;;;17.35;;
39190;SDS011;24916;51.676;6.614;2023-08-12T07:23:05;27.38;;;20.05;;
39190;SDS011;24916;51.676;6.614;2023-08-12T07:25:31;26.43;;;21.17;;
39190;SDS011;24916;51.676;6.614;2023-08-12T07:27:57;22.60;;;16.08;;
39190;SDS011;24916;51.676;6.614;2023-08-12T07:30:22;25.73;;;19.27;;
39190;SDS011;24916;51.676;6.614;2023-08-12T07:32:48;26.42;;;20.05;;
39190;SDS011;24916;51.676;6.614;2023-08-12T07:35:13;17.97;;;13.17;;
39190;SDS011;24916;51.676;6.614;2023-08-12T07:37:38;22.13;;;17.30;;
39190;SDS011;24916;51.676;6.614;2023-08-12T07:40:04;20.70;;;16.45;;
39190;SDS011;24916;51.676;6.614;2023-08-12T07:42:29;24.38;;;17.67;;
39190;SDS011;24916;51.676;6.614;2023-08-12T07:44:54;20.13;;;16.97;;
39190;SDS011;24916;51.676;6.614;2023-08-12T07:47:19;24.92;;;17.95;;
39190;SDS011;24916;51.676;6.614;2023-08-12T07:49:45;18.37;;;14.70;;
39190;SDS011;24916;51.676;6.614;2023-08-12T07:52:10;15.15;;;12.40;;
39190;SDS011;24916;51.676;6.614;2023-08-12T07:54:35;14.65;;;12.68;;
39190;SDS011;24916;51.676;6.614;2023-08-12T07:57:00;16.67;;;12.93;;
39190;SDS011;24916;51.676;6.614;2023-08-12T07:59:26;16.90;;;12.77;;
39190;SDS011;24916;51.676;6.614;2023-08-12T08:01:51;24.88;;;19.27;;
39190;SDS011;24916;51.676;6.614;2023-08-12T08:04:16;12.18;;;10.32;;
39190;SDS011;24916;51.676;6.614;2023-08-12T08:06:42;14.07;;;11.23;;
39190;SDS011;24916;51.676;6.614;2023-08-12T08:09:07;8.70;;;6.60;;
39190;SDS011;24916;51.676;6.614;2023-08-12T08:11:32;13.73;;;9.82;;
39190;SDS011;24916;51.676;6.614;2023-08-12T08:13:59;11.93;;;8.90;;
39190;SDS011;24916;51.676;6.614;2023-08-12T08:16:24;12.43;;;9.00;;
39190;SDS011;24916;51.676;6.614;2023-08-12T08:18:49;10.10;;;9.02;;
39190;SDS011;24916;51.676;6.614;2023-08-12T08:21:15;10.40;;;9.35;;
39190;SDS011;24916;51.676;6.614;2023-08-12T08:23:40;11.55;;;9.68;;
39190;SDS011;24916;51.676;6.614;2023-08-12T08:26:06;6.93;;;6.07;;
39190;SDS011;24916;51.676;6.614;2023-08-12T08:28:31;8.80;;;7.82;;
39190;SDS011;24916;51.676;6.614;2023-08-12T08:30:57;10.50;;;7.18;;
39190;SDS011;24916;51.676;6.614;2023-08-12T08:33:23;9.20;;;7.60;;
39190;SDS011;24916;51.676;6.614;2023-08-12T08:35:48;8.10;;;6.53;;
39190;SDS011;24916;51.676;6.614;2023-08-12T08:38:13;8.00;;;7.20;;
39190;SDS011;24916;51.676;6.614;2023-08-12T08:40:39;7.43;;;6.65;;
39190;SDS011;24916;51.676;6.614;2023-08-12T08:43:04;6.25;;;5.07;;
39190;SDS011;24916;51.676;6.614;2023-08-12T08:45:32;5.13;;;4.63;;
39190;SDS011;24916;51.676;6.614;2023-08-12T08:47:59;4.25;;;3.83;;
39190;SDS011;24916;51.676;6.614;2023-08-12T08:50:24;11.70;;;10.13;;
39190;SDS011;24916;51.676;6.614;2023-08-12T08:52:49;12.07;;;9.15;;
39190;SDS011;24916;51.676;6.614;2023-08-12T08:55:16;7.18;;;4.57;;
39190;SDS011;24916;51.676;6.614;2023-08-12T08:57:42;6.32;;;3.00;;
39190;SDS011;24916;51.676;6.614;2023-08-12T09:00:08;10.23;;;3.55;;
39190;SDS011;24916;51.676;6.614;2023-08-12T09:02:34;4.97;;;3.85;;
39190;SDS011;24916;51.676;6.614;2023-08-12T09:05:01;8.25;;;2.95;;
39190;SDS011;24916;51.676;6.614;2023-08-12T09:07:27;3.72;;;2.47;;
39190;SDS011;24916;51.676;6.614;2023-08-12T09:09:52;3.85;;;2.80;;
39190;SDS011;24916;51.676;6.614;2023-08-12T09:12:17;13.63;;;12.32;;
39190;SDS011;24916;51.676;6.614;2023-08-12T09:14:43;10.63;;;7.10;;
39190;SDS011;24916;51.676;6.614;2023-08-12T09:17:08;8.05;;;3.13;;
39190;SDS011;24916;51.676;6.614;2023-08-12T09:19:34;4.63;;;2.50;;
39190;SDS011;24916;51.676;6.614;2023-08-12T09:21:59;2.20;;;1.87;;
39190;SDS011;24916;51.676;6.614;2023-08-12T09:24:25;4.40;;;2.17;;
39190;SDS011;24916;51.676;6.614;2023-08-12T09:26:51;2.97;;;2.17;;
39190;SDS011;24916;51.676;6.614;2023-08-12T09:29:17;6.88;;;2.22;;
39190;SDS011;24916;51.676;6.614;2023-08-12T09:31:42;3.55;;;2.38;;
39190;SDS011;24916;51.676;6.614;2023-08-12T09:34:07;2.85;;;1.90;;
39190;SDS011;24916;51.676;6.614;2023-08-12T09:36:33;5.55;;;3.25;;
39190;SDS011;24916;51.676;6.614;2023-08-12T09:38:58;4.50;;;2.08;;
39190;SDS011;24916;51.676;6.614;2023-08-12T09:41:26;6.00;;;3.13;;
39190;SDS011;24916;51.676;6.614;2023-08-12T09:43:52;3.05;;;2.22;;
39190;SDS011;24916;51.676;6.614;2023-08-12T09:46:18;2.05;;;1.85;;
39190;SDS011;24916;51.676;6.614;2023-08-12T09:48:46;4.63;;;1.92;;
39190;SDS011;24916;51.676;6.614;2023-08-12T09:51:11;5.17;;;2.13;;
39190;SDS011;24916;51.676;6.614;2023-08-12T09:53:36;4.32;;;2.97;;
39190;SDS011;24916;51.676;6.614;2023-08-12T09:56:08;3.00;;;2.10;;
39190;SDS011;24916;51.676;6.614;2023-08-12T09:58:36;4.40;;;3.08;;
39190;SDS011;24916;51.676;6.614;2023-08-12T10:01:02;4.55;;;2.63;;
39190;SDS011;24916;51.676;6.614;2023-08-12T10:03:28;6.38;;;3.90;;
39190;SDS011;24916;51.676;6.614;2023-08-12T10:05:53;3.72;;;2.40;;
39190;SDS011;24916;51.676;6.614;2023-08-12T10:08:19;4.00;;;3.13;;
39190;SDS011;24916;51.676;6.614;2023-08-12T10:10:44;5.03;;;2.20;;
39190;SDS011;24916;51.676;6.614;2023-08-12T10:13:10;2.45;;;1.88;;
39190;SDS011;24916;51.676;6.614;2023-08-12T10:15:36;4.03;;;2.42;;
39190;SDS011;24916;51.676;6.614;2023-08-12T10:18:01;3.92;;;2.53;;
39190;SDS011;24916;51.676;6.614;2023-08-12T10:20:27;2.95;;;2.13;;
39190;SDS011;24916;51.676;6.614;2023-08-12T10:22:54;3.92;;;1.58;;
39190;SDS011;24916;51.676;6.614;2023-08-12T10:25:20;3.05;;;1.70;;
39190;SDS011;24916;51.676;6.614;2023-08-12T10:27:49;2.72;;;1.70;;
39190;SDS011;24916;51.676;6.614;2023-08-12T10:30:15;6.28;;;1.73;;
39190;SDS011;24916;51.676;6.614;2023-08-12T10:32:40;2.20;;;1.80;;
39190;SDS011;24916;51.676;6.614;2023-08-12T10:35:06;2.75;;;1.58;;
39190;SDS011;24916;51.676;6.614;2023-08-12T10:37:32;4.63;;;1.83;;
39190;SDS011;24916;51.676;6.614;2023-08-12T10:39:58;2.22;;;1.90;;
39190;SDS011;24916;51.676;6.614;2023-08-12T10:45:07;2.97;;;2.05;;
39190;SDS011;24916;51.676;6.614;2023-08-12T10:47:33;3.63;;;2.55;;
39190;SDS011;24916;51.676;6.614;2023-08-12T10:49:59;4.93;;;2.40;;
39190;SDS011;24916;51.676;6.614;2023-08-12T10:52:30;4.43;;;2.60;;
39190;SDS011;24916;51.676;6.614;2023-08-12T10:55:15;4.22;;;3.10;;
39190;SDS011;24916;51.676;6.614;2023-08-12T11:00:06;4.95;;;3.00;;
39190;SDS011;24916;51.676;6.614;2023-08-12T11:02:36;3.17;;;2.67;;
39190;SDS011;24916;51.676;6.614;2023-08-12T11:07:29;5.80;;;5.00;;
39190;SDS011;24916;51.676;6.614;2023-08-12T11:09:58;6.70;;;6.10;;
39190;SDS011;24916;51.676;6.614;2023-08-12T11:12:28;4.75;;;4.25;;
39190;SDS011;24916;51.676;6.614;2023-08-12T11:14:53;4.40;;;3.88;;
39190;SDS011;24916;51.676;6.614;2023-08-12T11:17:19;4.55;;;3.67;;
39190;SDS011;24916;51.676;6.614;2023-08-12T11:19:44;3.58;;;2.83;;
39190;SDS011;24916;51.676;6.614;2023-08-12T11:22:10;2.65;;;2.45;;
39190;SDS011;24916;51.676;6.614;2023-08-12T11:24:38;3.08;;;2.40;;
39190;SDS011;24916;51.676;6.614;2023-08-12T11:27:09;3.75;;;2.17;;
39190;SDS011;24916;51.676;6.614;2023-08-12T11:29:34;2.20;;;2.00;;
39190;SDS011;24916;51.676;6.614;2023-08-12T11:31:59;4.85;;;4.07;;
39190;SDS011;24916;51.676;6.614;2023-08-12T11:34:25;7.88;;;2.25;;
39190;SDS011;24916;51.676;6.614;2023-08-12T11:36:50;2.85;;;1.50;;
39190;SDS011;24916;51.676;6.614;2023-08-12T11:39:15;2.58;;;1.80;;
39190;SDS011;24916;51.676;6.614;2023-08-12T11:41:43;2.25;;;1.73;;
39190;SDS011;24916;51.676;6.614;2023-08-12T11:44:15;3.03;;;1.65;;
39190;SDS011;24916;51.676;6.614;2023-08-12T11:46:42;2.20;;;1.85;;
39190;SDS011;24916;51.676;6.614;2023-08-12T11:49:07;3.00;;;2.70;;
39190;SDS011;24916;51.676;6.614;2023-08-12T11:51:36;3.28;;;2.20;;
39190;SDS011;24916;51.676;6.614;2023-08-12T11:54:01;4.43;;;2.25;;
39190;SDS011;24916;51.676;6.614;2023-08-12T11:56:26;5.35;;;2.67;;
39190;SDS011;24916;51.676;6.614;2023-08-12T11:58:52;1.85;;;1.55;;
39190;SDS011;24916;51.676;6.614;2023-08-12T12:01:19;10.00;;;6.45;;
39190;SDS011;24916;51.676;6.614;2023-08-12T12:03:49;3.13;;;2.80;;
39190;SDS011;24916;51.676;6.614;2023-08-12T12:06:15;2.38;;;1.73;;
39190;SDS011;24916;51.676;6.614;2023-08-12T12:08:43;3.55;;;1.92;;
39190;SDS011;24916;51.676;6.614;2023-08-12T12:11:09;4.80;;;2.30;;
39190;SDS011;24916;51.676;6.614;2023-08-12T12:13:37;3.75;;;2.72;;
39190;SDS011;24916;51.676;6.614;2023-08-12T12:16:02;2.55;;;2.20;;
39190;SDS011;24916;51.676;6.614;2023-08-12T12:18:28;7.30;;;3.80;;
39190;SDS011;24916;51.676;6.614;2023-08-12T12:20:54;2.13;;;1.70;;
39190;SDS011;24916;51.676;6.614;2023-08-12T12:23:19;1.80;;;1.65;;
39190;SDS011;24916;51.676;6.614;2023-08-12T12:25:45;2.25;;;1.98;;
39190;SDS011;24916;51.676;6.614;2023-08-12T12:28:10;2.75;;;2.55;;
39190;SDS011;24916;51.676;6.614;2023-08-12T12:30:36;2.50;;;2.28;;
39190;SDS011;24916;51.676;6.614;2023-08-12T12:33:01;2.33;;;1.75;;
39190;SDS011;24916;51.676;6.614;2023-08-12T12:35:26;5.23;;;2.30;;
39190;SDS011;24916;51.676;6.614;2023-08-12T12:37:51;2.37;;;1.47;;
39190;SDS011;24916;51.676;6.614;2023-08-12T12:40:17;3.47;;;1.70;;
39190;SDS011;24916;51.676;6.614;2023-08-12T12:42:42;1.30;;;0.97;;
39190;SDS011;24916;51.676;6.614;2023-08-12T12:45:07;1.20;;;0.80;;
39190;SDS011;24916;51.676;6.614;2023-08-12T12:47:33;0.70;;;0.70;;
39190;SDS011;24916;51.676;6.614;2023-08-12T12:49:58;3.22;;;0.82;;
39190;SDS011;24916;51.676;6.614;2023-08-12T12:52:23;0.63;;;0.57;;
39190;SDS011;24916;51.676;6.614;2023-08-12T12:54:49;1.23;;;0.88;;
39190;SDS011;24916;51.676;6.614;2023-08-12T12:57:14;4.87;;;3.30;;
39190;SDS011;24916;51.676;6.614;2023-08-12T12:59:39;6.60;;;4.40;;
39190;SDS011;24916;51.676;6.614;2023-08-12T13:02:05;2.50;;;2.03;;
39190;SDS011;24916;51.676;6.614;2023-08-12T13:04:33;1.30;;;0.70;;
39190;SDS011;24916;51.676;6.614;2023-08-12T13:06:58;4.35;;;0.80;;
39190;SDS011;24916;51.676;6.614;2023-08-12T13:09:24;0.90;;;0.50;;
39190;SDS011;24916;51.676;6.614;2023-08-12T13:11:49;2.05;;;1.20;;
39190;SDS011;24916;51.676;6.614;2023-08-12T13:14:14;8.13;;;7.35;;
39190;SDS011;24916;51.676;6.614;2023-08-12T13:16:41;1.65;;;1.05;;
39190;SDS011;24916;51.676;6.614;2023-08-12T13:19:07;2.28;;;1.00;;
39190;SDS011;24916;51.676;6.614;2023-08-12T13:21:32;1.47;;;1.00;;
39190;SDS011;24916;51.676;6.614;2023-08-12T13:23:58;2.45;;;1.40;;
39190;SDS011;24916;51.676;6.614;2023-08-12T13:26:23;3.38;;;1.15;;
39190;SDS011;24916;51.676;6.614;2023-08-12T13:28:49;3.42;;;1.17;;
39190;SDS011;24916;51.676;6.614;2023-08-12T13:31:14;4.82;;;1.48;;
39190;SDS011;24916;51.676;6.614;2023-08-12T13:33:40;1.23;;;0.75;;
39190;SDS011;24916;51.676;6.614;2023-08-12T13:36:05;4.75;;;0.88;;
39190;SDS011;24916;51.676;6.614;2023-08-12T13:38:30;6.43;;;1.67;;
39190;SDS011;24916;51.676;6.614;2023-08-12T13:40:56;10.25;;;2.30;;
39190;SDS011;24916;51.676;6.614;2023-08-12T13:43:24;3.63;;;0.95;;
39190;SDS011;24916;51.676;6.614;2023-08-12T13:45:49;5.38;;;1.73;;
39190;SDS011;24916;51.676;6.614;2023-08-12T13:48:15;3.60;;;1.65;;
39190;SDS011;24916;51.676;6.614;2023-08-12T13:50:40;3.13;;;1.13;;
39190;SDS011;24916;51.676;6.614;2023-08-12T13:53:06;2.65;;;1.02;;
39190;SDS011;24916;51.676;6.614;2023-08-12T13:55:31;2.65;;;0.98;;
39190;SDS011;24916;51.676;6.614;2023-08-12T13:57:56;2.20;;;1.20;;
39190;SDS011;24916;51.676;6.614;2023-08-12T14:00:21;3.07;;;1.33;;
39190;SDS011;24916;51.676;6.614;2023-08-12T14:02:49;4.07;;;1.38;;
39190;SDS011;24916;51.676;6.614;2023-08-12T14:05:14;4.25;;;1.95;;
39190;SDS011;24916;51.676;6.614;2023-08-12T14:07:39;2.72;;;1.30;;
39190;SDS011;24916;51.676;6.614;2023-08-12T14:10:05;3.15;;;1.27;;
39190;SDS011;24916;51.676;6.614;2023-08-12T14:12:30;2.97;;;0.82;;
39190;SDS011;24916;51.676;6.614;2023-08-12T14:14:56;3.33;;;1.27;;
39190;SDS011;24916;51.676;6.614;2023-08-12T14:17:21;2.53;;;1.10;;
39190;SDS011;24916;51.676;6.614;2023-08-12T14:19:48;3.78;;;0.90;;
39190;SDS011;24916;51.676;6.614;2023-08-12T14:22:13;6.47;;;1.42;;
39190;SDS011;24916;51.676;6.614;2023-08-12T14:24:39;2.95;;;1.27;;
39190;SDS011;24916;51.676;6.614;2023-08-12T14:27:04;34.67;;;28.35;;
39190;SDS011;24916;51.676;6.614;2023-08-12T14:29:29;4.40;;;2.47;;
39190;SDS011;24916;51.676;6.614;2023-08-12T14:31:55;6.30;;;2.13;;
39190;SDS011;24916;51.676;6.614;2023-08-12T14:34:20;4.57;;;1.53;;